Time;durP1;ratioP1;P1;durP2;ratioP2;P2;SDS_P1;SDS_P2;PMS_P1;PMS_P2;Temp;Humidity;BMP_temperature;BMP_pressure;BME280_temperature;BME280_humidity;BME280_pressure;Samples;Min_cycle;Max_cycle;Signal;HPM_P1;HPM_P2
2023/10/09 00:03:06;;;;;;;1.42;0.80;;;;;;;15.29;33.99;100548.00;4383963;32;33809;-75
2023/10/09 00:05:45;;;;;;;0.85;0.82;;;;;;;15.29;34.42;100539.91;4382344;32;33625;-74
2023/10/09 00:08:21;;;;;;;1.48;0.75;;;;;;;15.03;35.04;100547.41;4379165;32;33375;-74
2023/10/09 00:10:53;;;;;;;1.50;1.15;;;;;;;15.14;35.25;100536.59;4380763;32;37412;-74
2023/10/09 00:13:32;;;;;;;0.80;0.52;;;;;;;14.97;35.98;100531.72;4378065;32;35095;-72
2023/10/09 00:16:14;;;;;;;0.55;0.55;;;;;;;14.99;35.93;100528.91;4388328;32;33308;-72
2023/10/09 00:18:46;;;;;;;1.55;0.80;;;;;;;14.47;36.89;100531.19;4384396;32;35064;-71
2023/10/09 00:21:20;;;;;;;1.08;0.52;;;;;;;14.56;36.50;100524.25;4372888;32;35339;-71
2023/10/09 00:23:59;;;;;;;1.75;0.80;;;;;;;14.81;35.85;100539.34;4381804;32;33592;-72
2023/10/09 00:26:29;;;;;;;0.75;0.70;;;;;;;15.03;36.00;100525.84;4388467;32;33220;-71
2023/10/09 00:28:57;;;;;;;1.10;1.00;;;;;;;15.18;35.75;100523.72;4385067;32;35126;-72
2023/10/09 00:31:33;;;;;;;3.33;0.95;;;;;;;15.33;35.73;100524.31;4386532;32;33887;-71
2023/10/09 00:34:18;;;;;;;0.40;0.40;;;;;;;15.37;35.95;100521.22;4389187;32;34059;-71
2023/10/09 00:36:53;;;;;;;1.50;0.93;;;;;;;15.48;36.47;100525.75;4387668;32;34041;-71
2023/10/09 00:39:43;;;;;;;;;;;;;;;15.60;36.36;100518.47;4389288;32;33714;-71
2023/10/09 00:42:21;;;;;;;2.95;0.77;;;;;;;15.49;36.53;100526.59;4380543;32;34216;-71
2023/10/09 00:44:49;;;;;;;1.55;1.00;;;;;;;15.51;36.64;100525.50;4373786;32;34664;-71
2023/10/09 00:47:20;;;;;;;1.50;1.00;;;;;;;15.45;37.42;100520.62;4382907;32;33269;-73
2023/10/09 00:52:52;;;;;;;3.00;1.65;;;;;;;15.53;36.83;100518.13;4353820;32;35277;-74
2023/10/09 00:55:21;;;;;;;1.98;1.20;;;;;;;15.47;37.69;100512.38;4345546;32;34085;-74
2023/10/09 00:57:59;;;;;;;1.37;0.77;;;;;;;15.54;37.43;100513.59;4332500;32;32707;-73
2023/10/09 01:00:32;;;;;;;1.60;0.93;;;;;;;15.36;38.95;100521.38;4331970;32;34653;-73
2023/10/09 01:03:19;;;;;;;3.30;0.83;;;;;;;15.62;37.98;100519.19;4354091;32;33824;-74
2023/10/09 01:05:57;;;;;;;0.40;0.40;;;;;;;15.56;37.97;100523.25;4354073;32;34005;-73
2023/10/09 01:08:32;;;;;;;1.10;0.62;;;;;;;15.71;37.13;100525.72;4354227;32;33032;-73
2023/10/09 01:11:09;;;;;;;3.10;0.95;;;;;;;15.76;37.30;100527.03;4349221;32;33493;-72
2023/10/09 01:13:52;;;;;;;2.08;1.48;;;;;;;15.76;37.09;100510.84;4350346;32;33729;-73
2023/10/09 01:16:22;;;;;;;0.75;0.68;;;;;;;15.76;37.32;100512.66;4350151;32;33914;-73
2023/10/09 01:18:57;;;;;;;2.92;1.17;;;;;;;15.82;37.12;100517.56;4352692;32;33094;-73
2023/10/09 01:21:26;;;;;;;0.80;0.65;;;;;;;15.77;36.89;100515.25;4354034;32;33476;-72
2023/10/09 01:24:03;;;;;;;0.65;0.55;;;;;;;15.77;36.75;100522.50;4354743;32;33892;-72
2023/10/09 01:26:39;;;;;;;1.00;0.80;;;;;;;15.79;36.98;100521.38;4339275;32;33733;-72
2023/10/09 01:29:16;;;;;;;1.83;1.15;;;;;;;15.82;37.40;100531.91;4347950;32;34513;-72
2023/10/09 01:32:00;;;;;;;1.17;0.70;;;;;;;15.87;37.01;100522.59;4389237;32;34164;-73
2023/10/09 01:34:41;;;;;;;0.95;0.73;;;;;;;15.82;37.47;100523.81;4388599;32;33605;-73
2023/10/09 01:37:28;;;;;;;1.17;0.62;;;;;;;15.89;37.47;100520.59;4379163;32;34287;-73
2023/10/09 01:39:59;;;;;;;0.65;0.50;;;;;;;15.89;36.76;100524.16;4387374;32;33595;-73
2023/10/09 01:42:34;;;;;;;1.17;0.65;;;;;;;15.88;36.59;100527.84;4384436;32;34708;-73
2023/10/09 01:45:26;;;;;;;0.80;0.73;;;;;;;15.87;36.84;100523.44;4382671;32;33849;-72
2023/10/09 01:47:57;;;;;;;1.65;0.85;;;;;;;15.72;37.14;100520.16;4385886;32;33396;-73
2023/10/09 01:50:31;;;;;;;2.95;0.75;;;;;;;15.79;37.83;100526.78;4382730;32;32962;-73
2023/10/09 01:53:02;;;;;;;0.40;0.40;;;;;;;15.87;36.84;100534.22;4386781;32;34247;-72
2023/10/09 01:55:40;;;;;;;1.77;0.65;;;;;;;15.86;37.10;100537.94;4381426;32;34029;-72
2023/10/09 01:58:24;;;;;;;1.00;0.98;;;;;;;15.80;37.08;100533.88;4388382;32;35134;-73
2023/10/09 02:00:55;;;;;;;0.25;0.25;;;;;;;15.78;36.55;100543.94;4382387;32;33415;-72
2023/10/09 02:03:24;;;;;;;3.85;0.82;;;;;;;15.76;36.49;100554.03;4384914;32;34616;-74
2023/10/09 02:05:53;;;;;;;4.00;0.85;;;;;;;15.78;36.68;100548.50;4381374;32;33973;-74
2023/10/09 02:08:35;;;;;;;1.17;0.77;;;;;;;15.76;36.87;100545.06;4387610;32;33896;-73
2023/10/09 02:11:03;;;;;;;0.55;0.55;;;;;;;15.76;36.75;100537.84;4389815;32;33419;-74
2023/10/09 02:13:34;;;;;;;2.85;0.98;;;;;;;15.80;36.84;100527.63;4385933;32;33520;-74
2023/10/09 02:16:14;;;;;;;3.22;1.48;;;;;;;15.79;36.85;100524.09;4376948;32;33850;-72
2023/10/09 02:18:58;;;;;;;2.35;1.08;;;;;;;15.60;37.98;100524.75;4381384;32;33519;-72
2023/10/09 02:21:33;;;;;;;2.62;0.73;;;;;;;15.82;37.59;100522.94;4391031;32;34374;-72
2023/10/09 02:24:07;;;;;;;1.85;0.85;;;;;;;15.90;37.54;100514.22;4383508;32;33888;-72
2023/10/09 02:29:18;;;;;;;0.77;0.50;;;;;;;15.95;37.47;100526.31;4387505;32;35117;-73
2023/10/09 02:31:51;;;;;;;0.80;0.47;;;;;;;15.93;37.19;100511.25;4383625;32;33386;-71
2023/10/09 02:34:23;;;;;;;2.17;0.95;;;;;;;15.93;37.93;100524.75;4381160;32;34712;-72
2023/10/09 02:36:57;;;;;;;4.18;1.95;;;;;;;15.95;38.04;100515.53;4383780;32;33943;-73
2023/10/09 02:39:26;;;;;;;0.22;0.22;;;;;;;15.85;37.65;100506.50;4386814;32;34615;-72
2023/10/09 02:42:01;;;;;;;1.98;0.95;;;;;;;15.91;37.76;100505.13;4388363;32;34120;-71
2023/10/09 02:44:34;;;;;;;2.40;1.00;;;;;;;15.86;37.84;100512.75;4382782;32;34095;-70
2023/10/09 02:47:05;;;;;;;0.37;0.35;;;;;;;15.78;37.70;100508.00;4375713;32;35344;-70
2023/10/09 02:49:34;;;;;;;1.37;0.62;;;;;;;15.79;37.17;100494.41;4389828;32;34191;-71
2023/10/09 02:52:06;;;;;;;3.00;0.90;;;;;;;15.79;37.19;100486.31;4382992;32;34883;-71
2023/10/09 02:54:41;;;;;;;0.98;0.50;;;;;;;15.84;37.18;100475.09;4380574;32;33551;-72
2023/10/09 02:57:15;;;;;;;1.65;1.15;;;;;;;15.84;37.24;100483.19;4378882;32;34187;-73
2023/10/09 02:59:44;;;;;;;0.52;0.45;;;;;;;15.74;37.86;100479.56;4380888;32;35028;-72
2023/10/09 03:02:12;;;;;;;2.42;1.25;;;;;;;15.78;38.77;100494.50;4627461;27;33110;-66
2023/10/09 03:04:41;;;;;;;0.85;0.60;;;;;;;15.83;39.50;100492.28;4374733;32;34223;-68
2023/10/09 03:07:10;;;;;;;2.03;1.00;;;;;;;15.86;39.01;100480.34;4366175;32;33778;-69
2023/10/09 03:09:38;;;;;;;1.15;0.80;;;;;;;15.74;39.24;100485.81;4367033;32;33703;-69
2023/10/09 03:12:09;;;;;;;2.70;1.92;;;;;;;15.87;38.85;100504.53;4368146;32;33992;-68
2023/10/09 03:14:38;;;;;;;1.65;1.08;;;;;;;15.83;37.47;100493.16;4363904;32;34778;-68
2023/10/09 03:17:11;;;;;;;4.62;1.15;;;;;;;15.81;36.89;100473.50;4361517;32;34160;-68
2023/10/09 03:19:40;;;;;;;2.37;1.10;;;;;;;15.45;37.22;100466.66;4369150;32;34633;-68
2023/10/09 03:22:09;;;;;;;3.03;1.25;;;;;;;15.45;37.21;100463.97;4369224;32;33215;-69
2023/10/09 03:24:43;;;;;;;4.85;1.25;;;;;;;15.51;37.65;100476.94;4371657;32;33936;-68
2023/10/09 03:27:14;;;;;;;0.88;0.73;;;;;;;15.51;38.42;100471.53;4369515;32;33977;-68
2023/10/09 03:29:41;;;;;;;2.42;1.12;;;;;;;15.34;37.27;100461.28;4361698;32;33842;-68
2023/10/09 03:32:11;;;;;;;1.75;0.80;;;;;;;15.23;38.09;100472.13;4376756;32;34556;-68
2023/10/09 03:34:39;;;;;;;1.42;1.17;;;;;;;15.22;37.87;100457.78;4374380;32;33656;-66
2023/10/09 03:37:20;;;;;;;0.75;0.75;;;;;;;15.28;37.97;100457.28;4371170;32;34603;-68
2023/10/09 03:39:51;;;;;;;1.65;1.02;;;;;;;15.43;37.90;100467.78;4374972;32;35202;-68
2023/10/09 03:42:19;;;;;;;3.60;1.05;;;;;;;15.38;37.74;100470.84;4375665;32;33452;-68
2023/10/09 03:44:52;;;;;;;1.35;0.88;;;;;;;15.48;37.64;100482.59;4375190;32;35213;-66
2023/10/09 03:47:24;;;;;;;1.55;0.93;;;;;;;15.11;38.00;100482.94;4373407;32;35121;-68
2023/10/09 03:49:55;;;;;;;1.00;0.90;;;;;;;15.04;39.11;100479.03;4371636;32;33661;-67
2023/10/09 03:52:27;;;;;;;3.00;1.55;;;;;;;15.09;38.35;100478.66;4368701;32;34141;-68
2023/10/09 03:54:55;;;;;;;3.22;1.70;;;;;;;15.24;38.20;100474.69;4370441;32;33726;-68
2023/10/09 03:57:23;;;;;;;3.05;0.80;;;;;;;14.90;38.61;100472.06;4368685;32;34049;-68
2023/10/09 03:59:51;;;;;;;0.88;0.50;;;;;;;15.08;37.94;100476.94;4364762;32;34135;-67
2023/10/09 04:02:22;;;;;;;2.45;1.25;;;;;;;15.35;37.49;100473.81;4366060;32;33443;-66
2023/10/09 04:04:50;;;;;;;1.55;1.12;;;;;;;15.43;37.23;100463.22;4373283;32;33052;-67
2023/10/09 04:07:18;;;;;;;1.23;0.95;;;;;;;15.30;37.15;100449.91;4372220;32;34333;-66
2023/10/09 04:09:51;;;;;;;1.75;1.10;;;;;;;15.14;37.24;100461.09;4374234;32;33500;-66
2023/10/09 04:12:24;;;;;;;0.65;0.43;;;;;;;15.40;36.70;100463.47;4365636;32;33434;-67
2023/10/09 04:14:58;;;;;;;0.75;0.73;;;;;;;15.11;36.70;100469.44;4373583;32;34110;-67
2023/10/09 04:25:40;;;;;;;1.00;0.90;;;;;;;14.98;36.78;100463.34;4376013;32;34029;-67
2023/10/09 04:28:09;;;;;;;2.83;1.67;;;;;;;14.54;37.35;100451.66;4366336;32;33525;-67
2023/10/09 04:30:42;;;;;;;8.18;1.58;;;;;;;14.44;37.92;100445.22;4364071;32;34242;-65
2023/10/09 04:41:35;;;;;;;1.25;0.85;;;;;;;14.48;37.75;100433.25;4373362;32;35065;-67
2023/10/09 05:03:12;;;;;;;1.77;1.10;;;;;;;14.74;37.60;100417.72;4337924;32;34928;-68
2023/10/09 05:08:28;;;;;;;1.45;0.95;;;;;;;14.44;37.98;100405.72;4340030;33;33575;-68
2023/10/09 05:11:06;;;;;;;0.65;0.62;;;;;;;14.52;37.85;100404.28;4339028;33;34234;-68
2023/10/09 05:16:18;;;;;;;0.55;0.55;;;;;;;13.70;39.31;100405.25;4343683;33;33238;-68
2023/10/09 05:18:57;;;;;;;7.15;2.33;;;;;;;14.40;38.10;100404.22;4332594;33;33461;-68
2023/10/09 05:37:33;;;;;;;1.08;0.77;;;;;;;15.21;36.37;100390.50;4376647;32;33286;-68
2023/10/09 05:42:57;;;;;;;0.93;0.80;;;;;;;15.35;35.86;100403.69;4383826;32;34121;-67
2023/10/09 06:04:53;;;;;;;1.48;0.82;;;;;;;15.22;36.12;100419.19;4297093;33;35244;-67
2023/10/09 06:07:24;;;;;;;8.60;1.37;;;;;;;15.44;36.14;100407.41;4285368;33;34462;-67
2023/10/09 06:09:52;;;;;;;2.20;0.55;;;;;;;15.05;36.05;100402.53;4285799;33;32909;-69
2023/10/09 06:12:33;;;;;;;2.83;1.20;;;;;;;15.35;35.50;100401.00;4284741;33;36920;-67
2023/10/09 06:17:51;;;;;;;2.92;1.08;;;;;;;15.45;35.28;100384.88;4281028;33;33828;-68
2023/10/09 06:26:02;;;;;;;4.40;2.42;;;;;;;15.34;36.67;100366.88;4286951;33;34639;-67
2023/10/09 06:28:33;;;;;;;12.77;3.90;;;;;;;15.37;35.11;100377.41;4302954;33;33515;-68
2023/10/09 06:31:27;;;;;;;3.70;1.70;;;;;;;15.43;36.87;100371.50;4302130;33;33294;-68
2023/10/09 06:34:09;;;;;;;5.45;2.35;;;;;;;15.37;34.81;100367.47;4312477;33;33657;-68
2023/10/09 06:36:46;;;;;;;8.13;3.95;;;;;;;15.49;34.29;100365.59;4305900;33;34855;-68
2023/10/09 06:42:08;;;;;;;2.40;1.27;;;;;;;15.63;34.79;100377.88;4341900;33;32924;-68
2023/10/09 06:47:40;;;;;;;0.45;0.45;;;;;;;15.55;33.55;100377.72;4294385;33;34230;-68
2023/10/09 06:52:57;;;;;;;1.95;1.30;;;;;;;15.46;34.09;100367.69;4276469;33;34105;-68
2023/10/09 06:55:37;;;;;;;5.32;2.42;;;;;;;15.44;33.92;100367.84;4266497;33;34776;-68
2023/10/09 06:58:09;;;;;;;12.75;2.90;;;;;;;15.19;32.93;100362.81;4277795;33;33839;-68
2023/10/09 07:03:32;;;;;;;1.65;0.93;;;;;;;15.30;33.26;100357.34;4296711;33;32840;-68
2023/10/09 07:17:15;;;;;;;2.65;1.58;;;;;;;14.93;33.37;100338.00;4311074;33;34561;-68
2023/10/09 07:24:56;;;;;;;2.42;1.37;;;;;;;14.85;32.66;100336.81;4337433;32;32149;-68
2023/10/09 07:27:45;;;;;;;;;;;;;;;14.26;33.22;100342.56;4365817;32;33432;-68
2023/10/09 07:38:28;;;;;;;1.92;1.25;;;;;;;15.04;33.50;100294.84;4388202;32;33781;-68
2023/10/09 07:46:51;;;;;;;0.93;0.52;;;;;;;15.34;34.02;100259.00;4378250;32;33340;-68
2023/10/09 07:49:26;;;;;;;3.40;1.10;;;;;;;15.02;32.87;100253.69;4385063;32;33883;-67
2023/10/09 07:51:55;;;;;;;3.12;1.95;;;;;;;15.16;33.32;100249.84;4387304;32;33607;-67
2023/10/09 07:54:32;;;;;;;3.12;1.75;;;;;;;15.26;33.58;100235.41;4387692;32;34895;-68
2023/10/09 07:57:15;;;;;;;1.65;0.95;;;;;;;14.65;33.65;100228.03;4382768;32;34550;-68
2023/10/09 07:59:54;;;;;;;1.65;0.90;;;;;;;14.67;33.63;100236.00;4386185;32;33741;-68
2023/10/09 08:02:31;;;;;;;1.40;0.90;;;;;;;15.13;34.23;100227.53;4357688;32;34182;-68
2023/10/09 08:05:06;;;;;;;2.33;1.37;;;;;;;14.56;33.58;100223.41;4369984;32;33996;-68
2023/10/09 08:07:34;;;;;;;1.55;0.75;;;;;;;14.32;33.73;100236.22;4365193;32;33441;-68
2023/10/09 08:18:10;;;;;;;2.15;0.95;;;;;;;14.86;32.42;100228.06;4355384;32;33224;-68
2023/10/09 08:23:33;;;;;;;3.70;1.75;;;;;;;14.89;32.30;100213.44;4341910;33;35229;-71
2023/10/09 08:26:14;;;;;;;1.95;0.85;;;;;;;14.85;31.74;100203.91;4341470;32;33361;-71
2023/10/09 08:28:43;;;;;;;5.20;1.70;;;;;;;14.28;32.52;100192.50;4329813;33;33195;-71
2023/10/09 08:31:45;;;;;;;3.10;1.37;;;;;;;14.08;32.67;100204.91;4341119;33;33640;-72
2023/10/09 08:34:24;;;;;;;0.47;0.30;;;;;;;13.82;32.43;100206.19;4366748;32;34289;-71
2023/10/09 08:37:13;;;;;;;1.75;0.95;;;;;;;14.08;33.02;100201.38;4373469;32;34709;-71
2023/10/09 08:39:42;;;;;;;0.70;0.40;;;;;;;14.11;34.13;100191.22;4362381;32;33034;-71
2023/10/09 08:42:10;;;;;;;0.32;0.32;;;;;;;13.90;32.90;100185.78;4373683;32;34851;-71
2023/10/09 08:44:39;;;;;;;3.58;1.95;;;;;;;13.63;32.89;100183.47;4372471;32;33993;-71
2023/10/09 08:47:07;;;;;;;1.77;0.43;;;;;;;13.93;33.49;100185.53;4370111;32;34250;-71
2023/10/09 08:49:35;;;;;;;1.02;0.68;;;;;;;14.67;32.21;100182.97;4360144;32;34030;-69
2023/10/09 08:52:04;;;;;;;1.20;1.10;;;;;;;14.29;33.05;100183.47;4365597;32;33594;-70
2023/10/09 08:54:33;;;;;;;1.25;0.70;;;;;;;14.88;32.10;100174.00;4366108;32;34707;-70
2023/10/09 08:57:01;;;;;;;1.55;0.80;;;;;;;15.49;31.47;100179.44;4369660;32;35113;-70
2023/10/09 08:59:30;;;;;;;0.45;0.40;;;;;;;15.35;33.08;100180.69;4374170;32;33498;-70
2023/10/09 09:01:59;;;;;;;4.93;2.20;;;;;;;15.25;31.35;100176.19;4385481;32;34663;-70
2023/10/09 09:04:40;;;;;;;0.32;0.32;;;;;;;15.54;30.44;100174.50;4391731;32;34012;-70
2023/10/09 09:07:24;;;;;;;1.25;0.90;;;;;;;16.07;31.05;100168.84;4384134;32;33615;-70
2023/10/09 09:10:17;;;;;;;3.25;0.77;;;;;;;15.81;30.41;100171.22;4383564;32;34230;-69
2023/10/09 09:12:46;;;;;;;1.55;0.68;;;;;;;16.18;32.31;100146.28;4390801;32;33348;-69
2023/10/09 09:15:19;;;;;;;0.43;0.40;;;;;;;15.81;31.24;100140.69;4368375;32;35634;-69
2023/10/09 09:17:49;;;;;;;1.83;0.85;;;;;;;16.43;31.35;100138.59;4384197;32;33416;-69
2023/10/09 09:20:27;;;;;;;2.65;1.27;;;;;;;16.49;30.60;100136.16;4386327;32;33761;-69
2023/10/09 09:22:58;;;;;;;1.25;0.55;;;;;;;16.96;29.04;100133.59;4371988;32;34828;-69
2023/10/09 09:25:45;;;;;;;1.37;0.93;;;;;;;16.92;29.40;100144.84;4378141;32;33824;-69
2023/10/09 09:28:19;;;;;;;5.93;0.95;;;;;;;16.63;29.31;100143.00;4379284;32;33761;-69
2023/10/09 09:30:55;;;;;;;1.10;0.32;;;;;;;16.77;29.59;100141.75;4377813;32;33542;-69
2023/10/09 09:33:39;;;;;;;1.85;1.05;;;;;;;16.33;29.45;100140.44;4386735;32;33784;-67
2023/10/09 09:36:07;;;;;;;0.88;0.45;;;;;;;15.91;30.82;100128.03;4382921;32;34140;-68
2023/10/09 09:38:41;;;;;;;4.72;1.10;;;;;;;16.33;29.92;100132.34;4384319;32;34928;-68
2023/10/09 09:41:09;;;;;;;2.10;0.57;;;;;;;15.76;29.90;100132.13;4384950;32;32980;-68
2023/10/09 09:43:40;;;;;;;16.12;1.73;;;;;;;16.02;30.49;100130.62;4388234;32;33900;-68
2023/10/09 09:46:11;;;;;;;7.32;1.42;;;;;;;15.40;31.63;100137.09;4375681;32;33840;-67
2023/10/09 09:48:39;;;;;;;4.20;1.35;;;;;;;16.51;29.57;100134.19;4394107;32;35114;-67
2023/10/09 09:51:08;;;;;;;1.27;0.95;;;;;;;16.70;30.01;100125.22;4391581;32;32988;-67
2023/10/09 09:53:36;;;;;;;2.35;0.85;;;;;;;17.10;30.28;100115.19;4397057;32;35164;-68
2023/10/09 09:56:04;;;;;;;0.55;0.40;;;;;;;17.45;29.37;100114.47;4404799;32;34262;-68
2023/10/09 09:58:42;;;;;;;11.00;1.10;;;;;;;17.47;29.11;100112.47;4386784;32;33740;-68
2023/10/09 10:01:24;;;;;;;5.25;1.85;;;;;;;17.24;29.56;100106.59;4369941;32;33307;-69
2023/10/09 10:03:58;;;;;;;5.80;1.40;;;;;;;17.23;29.43;100100.31;4372640;32;33874;-68
2023/10/09 10:06:28;;;;;;;2.45;1.37;;;;;;;17.56;28.60;100102.56;4363657;32;35033;-68
2023/10/09 10:08:56;;;;;;;2.80;1.00;;;;;;;17.49;28.36;100098.78;4371549;32;34222;-69
2023/10/09 10:11:42;;;;;;;4.65;1.27;;;;;;;17.34;28.50;100090.31;4383349;32;31701;-70
2023/10/09 10:14:20;;;;;;;1.75;0.65;;;;;;;17.48;28.47;100072.72;4383189;32;33702;-71
2023/10/09 10:17:17;;;;;;;1.25;0.80;;;;;;;17.41;29.41;100069.78;4384681;32;34961;-72
2023/10/09 10:23:17;;;;;;;6.32;1.23;;;;;;;16.48;29.75;100015.59;4356689;32;33087;-71
2023/10/09 10:25:51;;;;;;;1.55;0.95;;;;;;;17.53;28.67;100040.63;4345898;32;33293;-70
2023/10/09 10:31:15;;;;;;;1.48;0.65;;;;;;;17.61;28.69;100008.25;4326447;33;33682;-75
2023/10/09 10:34:06;;;;;;;0.57;0.40;;;;;;;17.67;28.72;100008.50;4324387;33;33319;-71
2023/10/09 10:36:34;;;;;;;5.28;1.00;;;;;;;17.67;28.83;99996.81;4323073;33;33761;-69
2023/10/09 10:39:21;;;;;;;1.20;0.77;;;;;;;17.33;29.24;99991.22;4324216;33;33890;-69
2023/10/09 10:41:54;;;;;;;7.78;0.75;;;;;;;17.66;28.57;99995.13;4323734;33;32277;-72
2023/10/09 10:44:41;;;;;;;22.17;2.17;;;;;;;17.61;29.14;99995.56;4326211;33;33117;-69
2023/10/09 10:47:24;;;;;;;1.77;0.80;;;;;;;17.40;29.42;99976.09;4329312;33;33841;-70
2023/10/09 10:50:07;;;;;;;2.00;0.82;;;;;;;17.77;28.69;99970.53;4331708;33;34132;-69
2023/10/09 10:52:35;;;;;;;3.53;1.08;;;;;;;17.96;28.76;99968.69;4328051;33;33999;-69
2023/10/09 10:58:23;;;;;;;2.30;0.90;;;;;;;17.82;28.39;99961.97;4288420;33;33475;-70
2023/10/09 11:03:55;;;;;;;2.75;1.15;;;;;;;18.00;28.05;99970.06;4277563;33;33752;-72
2023/10/09 11:06:36;;;;;;;5.25;2.20;;;;;;;17.63;28.75;99946.72;4300693;33;34043;-71
2023/10/09 11:09:20;;;;;;;4.18;1.52;;;;;;;17.79;28.59;99946.03;4311772;33;33720;-72
2023/10/09 11:11:49;;;;;;;2.05;0.73;;;;;;;18.27;28.41;99925.75;4308419;33;34219;-71
2023/10/09 11:14:23;;;;;;;1.85;0.65;;;;;;;18.07;27.87;99903.41;4314012;33;33220;-72
2023/10/09 11:16:57;;;;;;;1.27;0.70;;;;;;;17.59;29.08;99921.81;4312315;33;32953;-72
2023/10/09 11:19:31;;;;;;;2.45;1.12;;;;;;;17.80;28.52;99956.69;4312296;33;33640;-72
2023/10/09 11:24:34;;;;;;;2.17;1.00;;;;;;;18.13;28.76;99929.88;4300364;33;33412;-71
2023/10/09 11:27:06;;;;;;;2.37;0.95;;;;;;;18.22;28.43;99941.63;4293049;33;33877;-72
2023/10/09 11:32:22;;;;;;;2.45;0.73;;;;;;;18.48;28.29;99895.53;4304095;33;34819;-72
2023/10/09 11:34:54;;;;;;;2.28;0.95;;;;;;;18.75;28.15;99929.75;4322202;32;35236;-72
2023/10/09 11:40:00;;;;;;;4.05;2.05;;;;;;;18.16;29.45;99926.84;4378846;32;33990;-71
2023/10/09 11:42:49;;;;;;;2.55;1.00;;;;;;;17.68;29.99;99949.78;4381281;32;34313;-71
2023/10/09 11:45:22;;;;;;;4.37;1.92;;;;;;;17.64;30.47;99964.66;4382635;32;34173;-71
2023/10/09 11:47:57;;;;;;;0.90;0.47;;;;;;;18.24;30.44;99970.25;4385650;32;34053;-72
2023/10/09 11:55:52;;;;;;;1.42;0.90;;;;;;;18.89;29.99;99948.09;4385646;32;33723;-69
2023/10/09 11:58:24;;;;;;;5.15;1.40;;;;;;;19.04;29.24;99949.19;4390135;32;34895;-68
2023/10/09 12:01:17;;;;;;;1.50;0.82;;;;;;;18.82;29.29;99934.34;4385769;32;34024;-69
2023/10/09 12:03:41;;;;;;;1.60;0.73;;;;;;;18.52;30.21;99924.87;4385545;32;34029;-70
2023/10/09 12:06:12;;;;;;;3.53;2.00;;;;;;;18.75;30.17;99911.63;4382521;32;34673;-69
2023/10/09 12:08:40;;;;;;;4.35;1.02;;;;;;;18.77;30.58;99919.59;4376974;32;34269;-71
2023/10/09 12:11:09;;;;;;;12.95;0.85;;;;;;;18.85;30.75;99919.63;4378437;32;33628;-72
2023/10/09 12:13:43;;;;;;;1.48;0.80;;;;;;;18.48;30.29;99918.06;4384440;32;33531;-71
2023/10/09 12:16:15;;;;;;;4.57;0.85;;;;;;;18.28;32.18;99901.19;4386479;32;35022;-72
2023/10/09 12:18:45;;;;;;;5.68;1.25;;;;;;;19.00;31.52;99888.13;4388409;32;32223;-72
2023/10/09 12:21:15;;;;;;;4.05;0.98;;;;;;;17.98;33.59;99882.69;4381525;32;33928;-71
2023/10/09 12:23:47;;;;;;;1.67;0.85;;;;;;;18.60;33.50;99875.25;4385780;32;34907;-71
2023/10/09 12:26:15;;;;;;;5.28;1.23;;;;;;;18.63;33.59;99867.66;4389958;32;34774;-72
2023/10/09 12:28:47;;;;;;;12.18;1.37;;;;;;;18.56;33.78;99871.19;4380052;32;34406;-71
2023/10/09 12:31:19;;;;;;;1.27;0.98;;;;;;;19.06;33.87;99878.47;4387412;32;33437;-70
2023/10/09 12:33:49;;;;;;;6.12;2.22;;;;;;;18.73;34.67;99875.69;4389944;32;34185;-71
2023/10/09 12:36:20;;;;;;;2.10;1.00;;;;;;;18.99;33.79;99863.91;4388166;32;33612;-71
2023/10/09 12:38:58;;;;;;;2.75;1.23;;;;;;;18.25;35.38;99855.44;4388860;32;33399;-71
2023/10/09 12:41:27;;;;;;;1.85;0.85;;;;;;;18.63;35.70;99839.69;4382892;32;33677;-71
2023/10/09 12:43:58;;;;;;;4.03;1.85;;;;;;;18.74;35.59;99842.13;4379279;32;35551;-71
2023/10/09 12:46:27;;;;;;;8.75;1.77;;;;;;;18.57;36.51;99846.63;4380354;32;33578;-71
2023/10/09 12:48:55;;;;;;;2.95;1.70;;;;;;;18.77;36.48;99858.06;4378920;32;34021;-70
2023/10/09 12:51:29;;;;;;;2.47;1.58;;;;;;;19.00;36.88;99866.44;4390259;32;33852;-67
2023/10/09 12:53:58;;;;;;;;;;;;;;;19.09;38.67;99861.88;4394224;32;33701;-70
2023/10/09 12:56:32;;;;;;;3.50;1.45;;;;;;;18.09;37.84;99860.78;4394427;32;34330;-67
2023/10/09 12:59:01;;;;;;;2.25;0.85;;;;;;;18.57;36.47;99845.78;4395066;32;33480;-72
2023/10/09 13:01:32;;;;;;;1.73;1.08;;;;;;;18.84;36.05;99845.56;4399739;32;34377;-71
2023/10/09 13:04:00;;;;;;;0.62;0.47;;;;;;;18.68;36.63;99842.75;4392792;32;33820;-72
2023/10/09 13:06:28;;;;;;;1.45;0.80;;;;;;;18.62;38.16;99832.59;4391184;32;33486;-71
2023/10/09 13:08:59;;;;;;;1.87;0.88;;;;;;;18.74;37.72;99834.00;4359694;32;34381;-71
2023/10/09 13:11:28;;;;;;;3.60;1.30;;;;;;;19.11;37.60;99845.44;4361864;32;35078;-71
2023/10/09 13:13:55;;;;;;;2.05;0.95;;;;;;;18.69;38.90;99849.03;4362104;32;33985;-71
2023/10/09 13:16:23;;;;;;;1.65;1.25;;;;;;;19.17;39.13;99829.34;4363826;32;32542;-71
2023/10/09 13:18:53;;;;;;;3.92;1.48;;;;;;;19.22;38.40;99839.69;4364851;32;33408;-71
2023/10/09 13:21:22;;;;;;;5.18;1.42;;;;;;;19.15;39.25;99822.38;4360112;32;34087;-71
2023/10/09 13:23:51;;;;;;;1.45;0.75;;;;;;;19.40;39.01;99832.25;4357874;32;35023;-71
2023/10/09 13:26:29;;;;;;;2.30;1.17;;;;;;;19.47;38.79;99826.97;4347618;32;33901;-72
2023/10/09 13:29:02;;;;;;;6.12;1.62;;;;;;;19.29;39.67;99830.72;4354312;32;32775;-71
2023/10/09 13:31:34;;;;;;;3.85;0.95;;;;;;;19.44;39.52;99824.59;4359147;32;34608;-72
2023/10/09 13:34:03;;;;;;;3.85;1.20;;;;;;;19.49;40.88;99820.38;4362510;32;34912;-72
2023/10/09 13:36:33;;;;;;;3.28;1.10;;;;;;;19.55;41.27;99827.00;4362917;32;33597;-71
2023/10/09 13:41:58;;;;;;;2.22;1.05;;;;;;;19.48;42.76;99834.09;4362872;32;33258;-68
2023/10/09 13:44:34;;;;;;;2.58;0.95;;;;;;;19.15;44.26;99838.66;4356379;32;34464;-69
2023/10/09 13:47:05;;;;;;;4.18;1.17;;;;;;;19.14;44.81;99826.13;4357659;32;33667;-70
2023/10/09 13:49:33;;;;;;;7.72;2.08;;;;;;;19.44;44.25;99830.88;4363899;32;34187;-69
2023/10/09 13:52:02;;;;;;;4.35;1.37;;;;;;;19.04;46.29;99829.84;4361404;32;34730;-69
2023/10/09 13:57:07;;;;;;;3.72;1.37;;;;;;;19.44;46.83;99817.31;4355758;32;33699;-69
2023/10/09 13:59:36;;;;;;;3.67;1.77;;;;;;;19.28;46.63;99807.28;4355975;32;32830;-69
2023/10/09 14:02:09;;;;;;;7.43;2.15;;;;;;;19.16;45.99;99805.09;4358534;32;33618;-69
2023/10/09 14:04:38;;;;;;;2.90;1.10;;;;;;;19.16;46.20;99816.78;4358637;32;34213;-70
2023/10/09 14:07:06;;;;;;;3.62;1.95;;;;;;;19.21;47.29;99811.72;4354247;32;34488;-70
2023/10/09 14:10:17;;;;;;;4.30;1.75;;;;;;;19.01;49.54;99808.47;4356247;32;33287;-70
2023/10/09 14:12:29;;;;;;;3.62;1.45;;;;;;;19.15;49.91;99790.66;4373719;32;34660;-70
2023/10/09 14:14:57;;;;;;;4.85;1.62;;;;;;;19.15;50.01;99787.97;4390063;32;33999;-70
2023/10/09 14:17:27;;;;;;;5.40;1.87;;;;;;;19.07;49.37;99793.41;4383389;32;33397;-70
2023/10/09 14:22:54;;;;;;;5.43;1.77;;;;;;;18.96;51.19;99796.41;4322329;32;34589;-70
2023/10/09 14:25:23;;;;;;;3.22;1.92;;;;;;;18.99;51.38;99790.66;4325719;32;33752;-70
2023/10/09 14:27:53;;;;;;;11.15;1.37;;;;;;;18.96;51.36;99785.56;4326682;32;34321;-69
2023/10/09 14:30:32;;;;;;;2.30;1.37;;;;;;;18.66;52.73;99784.31;4328717;33;33482;-69
2023/10/09 14:33:01;;;;;;;5.62;2.22;;;;;;;18.22;53.67;99796.16;4323345;33;32657;-70
2023/10/09 14:35:32;;;;;;;6.53;2.37;;;;;;;18.05;54.57;99802.53;4326208;33;33808;-69
2023/10/09 14:38:04;;;;;;;4.20;2.15;;;;;;;18.15;55.20;99811.37;4326807;32;33346;-68
2023/10/09 14:40:32;;;;;;;6.53;3.25;;;;;;;17.81;56.37;99803.22;4326525;33;33476;-69
2023/10/09 14:43:00;;;;;;;8.63;3.47;;;;;;;17.86;56.83;99798.19;4327070;33;33766;-68
2023/10/09 14:45:28;;;;;;;8.70;3.08;;;;;;;17.93;56.71;99801.94;4324633;33;33906;-69
2023/10/09 14:47:56;;;;;;;13.90;3.70;;;;;;;17.64;57.86;99789.56;4326630;32;35258;-68
2023/10/09 14:50:23;;;;;;;6.12;3.55;;;;;;;17.81;57.46;99795.94;4326692;32;33278;-68
2023/10/09 14:52:51;;;;;;;9.40;2.80;;;;;;;17.38;58.97;99804.94;4324947;33;34569;-69
2023/10/09 14:55:28;;;;;;;7.80;3.60;;;;;;;17.20;60.05;99803.09;4329003;33;33968;-70
2023/10/09 14:57:58;;;;;;;6.70;2.95;;;;;;;17.20;60.21;99800.38;4322600;33;34059;-70
2023/10/09 15:00:27;;;;;;;6.93;3.40;;;;;;;17.10;60.35;99790.66;4373264;32;34301;-70